Time;durP1;ratioP1;P1;durP2;ratioP2;P2;SDS_P1;SDS_P2;PMS_P1;PMS_P2;Temp;Humidity;BMP_temperature;BMP_pressure;BME280_temperature;BME280_humidity;BME280_pressure;Samples;Min_cycle;Max_cycle;Signal;HPM_P1;HPM_P2
2022/06/25 00:01:11;;;;;;;2.67;0.70;;;17.90;99.90;;;;;;5036561;28;20047;-81
2022/06/25 00:03:38;;;;;;;;;;;17.90;99.90;;;;;;5049192;28;20037;-80
2022/06/25 00:06:04;;;;;;;1.30;0.50;;;17.90;99.90;;;;;;5049818;28;19917;-81
2022/06/25 00:08:30;;;;;;;2.25;0.52;;;17.90;99.90;;;;;;5033991;28;20511;-80
2022/06/25 00:10:56;;;;;;;1.23;0.80;;;17.90;99.90;;;;;;5023261;28;20067;-81
2022/06/25 00:13:22;;;;;;;1.52;0.80;;;17.90;99.90;;;;;;5050409;28;22082;-80
2022/06/25 00:15:48;;;;;;;2.08;0.60;;;17.90;99.90;;;;;;5050066;28;20040;-81
2022/06/25 00:18:14;;;;;;;1.40;0.60;;;17.90;99.90;;;;;;5018272;28;20085;-80
2022/06/25 00:20:42;;;;;;;1.10;0.50;;;17.90;99.90;;;;;;5050321;28;20037;-81
2022/06/25 00:23:07;;;;;;;1.20;0.43;;;17.90;99.90;;;;;;5048878;28;20668;-80
2022/06/25 00:25:34;;;;;;;1.73;0.50;;;17.90;99.90;;;;;;5037004;28;20044;-79
2022/06/25 00:28:00;;;;;;;1.65;0.50;;;17.90;99.90;;;;;;5050265;28;20040;-80
2022/06/25 00:30:28;;;;;;;0.88;0.40;;;17.90;99.90;;;;;;5041427;28;20029;-81
2022/06/25 00:32:54;;;;;;;1.00;0.50;;;17.90;99.90;;;;;;5033687;28;20074;-80
2022/06/25 00:35:19;;;;;;;2.65;0.40;;;17.90;99.90;;;;;;5035119;28;20493;-79
2022/06/25 00:37:45;;;;;;;0.80;0.40;;;17.90;99.90;;;;;;5023739;28;20264;-82
2022/06/25 00:40:11;;;;;;;1.45;0.43;;;17.80;99.90;;;;;;5050248;28;20035;-79
2022/06/25 00:42:44;;;;;;;1.75;0.40;;;17.80;99.90;;;;;;5049404;28;20028;-80
2022/06/25 00:45:11;;;;;;;1.23;0.50;;;17.70;99.90;;;;;;5021601;28;21910;-82
2022/06/25 00:47:37;;;;;;;1.25;0.40;;;17.70;99.90;;;;;;5038071;28;20021;-80
2022/06/25 00:50:03;;;;;;;1.42;0.50;;;17.80;99.90;;;;;;5036482;28;20040;-79
2022/06/25 00:52:33;;;;;;;1.17;0.40;;;17.70;99.90;;;;;;5031358;28;20067;-80
2022/06/25 00:55:01;;;;;;;;;;;17.70;99.90;;;;;;5016895;28;20029;-78
2022/06/25 00:57:28;;;;;;;0.90;0.40;;;17.80;99.90;;;;;;5051178;28;19970;-79
2022/06/25 01:00:04;;;;;;;1.27;0.40;;;17.70;99.90;;;;;;5049879;28;20086;-82
2022/06/25 01:02:30;;;;;;;1.50;0.40;;;17.70;99.90;;;;;;5040424;28;20033;-80
2022/06/25 01:04:56;;;;;;;1.10;0.30;;;17.70;99.90;;;;;;5037225;28;20040;-81
2022/06/25 01:07:22;;;;;;;1.42;0.40;;;17.70;99.90;;;;;;5017059;28;20036;-80
2022/06/25 01:09:50;;;;;;;0.90;0.40;;;17.60;99.90;;;;;;5015842;28;20396;-80
2022/06/25 01:12:16;;;;;;;0.93;0.40;;;17.60;99.90;;;;;;5050020;28;20029;-80
2022/06/25 01:14:43;;;;;;;1.83;0.40;;;17.60;99.90;;;;;;5049167;28;20397;-79
2022/06/25 01:17:09;;;;;;;0.90;0.40;;;17.60;99.90;;;;;;5037938;28;20025;-81
2022/06/25 01:19:36;;;;;;;1.48;0.40;;;17.60;99.90;;;;;;5022411;28;20511;-79
2022/06/25 01:22:03;;;;;;;1.00;0.38;;;17.60;99.90;;;;;;5039112;28;20017;-80
2022/06/25 01:24:30;;;;;;;0.98;0.30;;;17.60;99.90;;;;;;5017511;28;20489;-79
2022/06/25 01:26:57;;;;;;;0.70;0.30;;;17.60;99.90;;;;;;5043641;28;20033;-79
2022/06/25 01:29:23;;;;;;;0.80;0.35;;;17.50;99.90;;;;;;5054517;28;20542;-80
2022/06/25 01:31:49;;;;;;;0.60;0.30;;;17.50;99.90;;;;;;5025539;28;20507;-81
2022/06/25 01:34:15;;;;;;;2.72;0.40;;;17.50;99.90;;;;;;5026329;28;22091;-79
2022/06/25 01:36:41;;;;;;;0.70;0.30;;;17.50;99.90;;;;;;5053339;28;20036;-79
2022/06/25 01:39:06;;;;;;;1.70;0.40;;;17.50;99.90;;;;;;5043793;28;20036;-81
2022/06/25 01:41:32;;;;;;;0.68;0.30;;;17.50;99.90;;;;;;5036709;28;20146;-80
2022/06/25 01:43:58;;;;;;;0.88;0.30;;;17.40;99.90;;;;;;5036912;28;20391;-80
2022/06/25 01:46:23;;;;;;;0.93;0.32;;;17.40;99.90;;;;;;5054445;28;20093;-80
2022/06/25 01:48:49;;;;;;;0.85;0.30;;;17.40;99.90;;;;;;5041624;28;20387;-80
2022/06/25 01:51:17;;;;;;;0.70;0.30;;;17.30;99.90;;;;;;5037977;28;22035;-79
2022/06/25 01:53:44;;;;;;;0.68;0.30;;;17.30;99.90;;;;;;5041293;28;20033;-79
2022/06/25 01:56:11;;;;;;;1.00;0.30;;;17.30;99.90;;;;;;5025774;28;20044;-80
2022/06/25 01:58:37;;;;;;;2.25;0.40;;;17.30;99.90;;;;;;5024859;28;20033;-80
2022/06/25 02:01:05;;;;;;;1.00;0.40;;;17.30;99.90;;;;;;5036128;28;20735;-78
2022/06/25 02:03:32;;;;;;;0.88;0.38;;;17.30;99.90;;;;;;5040771;28;20024;-80
2022/06/25 02:05:57;;;;;;;0.90;0.30;;;17.30;99.90;;;;;;5024921;28;20055;-80
2022/06/25 02:08:30;;;;;;;1.27;0.30;;;17.20;99.90;;;;;;5037004;28;21992;-81
2022/06/25 02:10:56;;;;;;;2.78;0.45;;;17.10;99.90;;;;;;5025319;28;20032;-81
2022/06/25 02:13:23;;;;;;;0.77;0.30;;;17.20;99.90;;;;;;5052017;28;20482;-80
2022/06/25 02:15:49;;;;;;;1.33;0.40;;;17.10;99.90;;;;;;5035830;28;20077;-81
2022/06/25 02:18:15;;;;;;;1.02;0.30;;;17.10;99.90;;;;;;5052337;28;20705;-80
2022/06/25 02:20:42;;;;;;;0.52;0.22;;;17.10;99.90;;;;;;5031974;28;20033;-84
2022/06/25 02:23:09;;;;;;;0.50;0.30;;;17.10;99.90;;;;;;5023043;28;20029;-78
2022/06/25 02:25:35;;;;;;;1.15;0.30;;;17.10;99.90;;;;;;5024001;28;20097;-80
2022/06/25 02:28:01;;;;;;;1.77;0.35;;;17.00;99.90;;;;;;5034912;28;20432;-80
2022/06/25 02:30:28;;;;;;;1.25;0.30;;;17.10;99.90;;;;;;5051485;28;20028;-81
2022/06/25 02:32:54;;;;;;;0.57;0.30;;;17.00;99.90;;;;;;5036294;28;20082;-79
2022/06/25 02:35:20;;;;;;;1.00;0.30;;;17.00;99.90;;;;;;5025596;28;20029;-82
2022/06/25 02:37:46;;;;;;;0.80;0.30;;;17.00;99.90;;;;;;5020382;28;20031;-80
2022/06/25 02:40:14;;;;;;;1.10;0.40;;;17.00;99.90;;;;;;5031403;28;20029;-80
2022/06/25 02:42:42;;;;;;;1.25;0.30;;;16.90;99.90;;;;;;5017439;28;20021;-80
2022/06/25 02:45:09;;;;;;;1.73;0.30;;;16.90;99.90;;;;;;5024340;28;20783;-80
2022/06/25 02:47:37;;;;;;;0.82;0.40;;;16.90;99.90;;;;;;5025416;28;20055;-79
2022/06/25 02:50:11;;;;;;;1.10;0.40;;;16.80;99.90;;;;;;5033963;28;20488;-79
2022/06/25 02:52:38;;;;;;;1.17;0.30;;;16.80;99.90;;;;;;5053244;28;20021;-79
2022/06/25 02:55:06;;;;;;;1.10;0.30;;;16.80;99.90;;;;;;5049985;28;20037;-79
2022/06/25 03:00:39;;;;;;;0.80;0.30;;;16.80;99.90;;;;;;5039849;28;20039;-80
2022/06/25 03:03:05;;;;;;;1.08;0.38;;;16.80;99.90;;;;;;5025944;28;22418;-80
2022/06/25 03:05:31;;;;;;;0.80;0.20;;;16.80;99.90;;;;;;5046097;28;20055;-80
2022/06/25 03:07:57;;;;;;;1.20;0.30;;;16.80;99.90;;;;;;5035894;28;20025;-78
2022/06/25 03:10:22;;;;;;;1.23;0.25;;;16.70;99.90;;;;;;5027156;28;20417;-79
2022/06/25 03:12:48;;;;;;;1.02;0.30;;;16.70;99.90;;;;;;5026187;28;20029;-81
2022/06/25 03:15:21;;;;;;;1.55;0.30;;;16.70;99.90;;;;;;5024778;28;20044;-79
2022/06/25 03:17:48;;;;;;;1.88;0.30;;;16.70;99.90;;;;;;5043479;28;20032;-80
2022/06/25 03:20:46;;;;;;;0.80;0.40;;;16.70;99.90;;;;;;4979435;28;20042;-81
2022/06/25 03:23:11;;;;;;;1.40;0.30;;;16.70;99.90;;;;;;4979584;28;20579;-79
2022/06/25 03:25:40;;;;;;;1.00;0.30;;;16.70;99.90;;;;;;4963155;28;20173;-81
2022/06/25 03:28:06;;;;;;;2.03;0.40;;;16.70;99.90;;;;;;4975077;28;21043;-79
2022/06/25 03:30:35;;;;;;;1.17;0.30;;;16.60;99.90;;;;;;4959028;28;20068;-79
2022/06/25 03:33:02;;;;;;;1.08;0.40;;;16.70;99.90;;;;;;4962851;28;20092;-81
2022/06/25 03:35:40;;;;;;;1.13;0.40;;;16.70;99.90;;;;;;4978582;28;20036;-80
2022/06/25 03:38:18;;;;;;;0.95;0.30;;;16.70;99.90;;;;;;4962643;28;20045;-79
2022/06/25 03:40:44;;;;;;;1.05;0.30;;;16.70;99.90;;;;;;4977791;28;20526;-79
2022/06/25 03:43:13;;;;;;;1.00;0.40;;;16.70;99.90;;;;;;4977569;28;20037;-81
2022/06/25 03:45:41;;;;;;;1.00;0.35;;;16.60;99.90;;;;;;4962162;28;20042;-79
2022/06/25 03:48:07;;;;;;;1.20;0.40;;;16.70;99.90;;;;;;4956855;28;20433;-80
2022/06/25 03:50:51;;;;;;;1.17;0.40;;;16.60;99.90;;;;;;4942781;28;20288;-80
2022/06/25 03:53:16;;;;;;;0.95;0.40;;;16.70;99.90;;;;;;4961971;28;20530;-79
2022/06/25 03:55:42;;;;;;;1.15;0.40;;;16.60;99.90;;;;;;4987074;28;20119;-79
2022/06/25 03:58:08;;;;;;;1.20;0.50;;;16.70;99.90;;;;;;5035044;28;20024;-79
2022/06/25 04:00:35;;;;;;;0.70;0.30;;;16.70;99.90;;;;;;5028375;28;20153;-80
2022/06/25 04:03:01;;;;;;;1.45;0.40;;;16.60;99.90;;;;;;5040047;28;20493;-80
2022/06/25 04:05:28;;;;;;;1.88;0.50;;;16.70;99.90;;;;;;5049014;28;20076;-79
2022/06/25 04:07:57;;;;;;;;;;;16.70;99.90;;;;;;5018167;28;20029;-79
2022/06/25 04:10:23;;;;;;;2.45;0.40;;;16.70;99.90;;;;;;5048260;28;20355;-80
2022/06/25 04:12:48;;;;;;;1.15;0.40;;;16.70;99.90;;;;;;5024241;28;20095;-80
2022/06/25 04:15:16;;;;;;;1.13;0.40;;;16.80;99.90;;;;;;5032455;28;20025;-80
2022/06/25 04:17:42;;;;;;;0.88;0.40;;;16.80;99.90;;;;;;5032827;28;20031;-79
2022/06/25 04:20:10;;;;;;;0.88;0.50;;;16.80;99.90;;;;;;5034482;28;20139;-81
2022/06/25 04:22:37;;;;;;;1.13;0.40;;;16.90;99.90;;;;;;5017922;28;20080;-80
2022/06/25 04:25:04;;;;;;;2.35;0.50;;;16.90;99.90;;;;;;5017559;28;20045;-80
2022/06/25 04:30:14;;;;;;;1.40;0.50;;;17.00;99.90;;;;;;5040514;28;20191;-78
2022/06/25 04:32:44;;;;;;;1.77;0.50;;;17.00;99.90;;;;;;5031910;28;20024;-80
2022/06/25 04:35:18;;;;;;;1.30;0.40;;;17.10;99.90;;;;;;5016657;28;20042;-81
2022/06/25 04:37:45;;;;;;;0.80;0.32;;;17.20;99.90;;;;;;5031553;28;20706;-79
2022/06/25 04:40:14;;;;;;;0.70;0.40;;;17.30;99.90;;;;;;5038078;28;20101;-80
2022/06/25 04:42:44;;;;;;;2.38;0.50;;;17.50;99.90;;;;;;5033193;28;20090;-80
2022/06/25 04:45:10;;;;;;;2.00;0.30;;;17.60;99.90;;;;;;5021988;28;20055;-79
2022/06/25 04:47:45;;;;;;;0.80;0.30;;;17.70;99.90;;;;;;5035108;28;20031;-80
2022/06/25 04:50:46;;;;;;;1.83;0.30;;;18.00;99.90;;;;;;5048902;28;20055;-79
2022/06/25 04:53:12;;;;;;;1.10;0.30;;;18.10;99.90;;;;;;5032080;28;20542;-80
2022/06/25 04:55:38;;;;;;;0.93;0.40;;;18.30;99.90;;;;;;5050418;28;20127;-80
2022/06/25 04:58:04;;;;;;;1.80;0.40;;;18.40;99.90;;;;;;5016588;28;20077;-79
2022/06/25 05:01:05;;;;;;;1.30;0.40;;;18.40;99.90;;;;;;4989909;28;20046;-80
2022/06/25 05:03:30;;;;;;;1.17;0.40;;;18.60;99.90;;;;;;4969553;28;20750;-80
2022/06/25 05:06:08;;;;;;;1.85;0.40;;;18.70;99.90;;;;;;4967264;28;20140;-81
2022/06/25 05:08:35;;;;;;;2.17;0.60;;;18.90;99.90;;;;;;4968921;28;20128;-81
2022/06/25 05:11:00;;;;;;;0.63;0.30;;;19.00;99.90;;;;;;4977068;28;20104;-81
2022/06/25 05:13:27;;;;;;;1.30;0.30;;;19.00;99.90;;;;;;4986669;28;20478;-79
2022/06/25 05:15:53;;;;;;;1.45;0.40;;;19.10;99.90;;;;;;4979940;28;20477;-81
2022/06/25 05:18:19;;;;;;;2.10;0.40;;;19.20;99.90;;;;;;4980947;28;20033;-80
2022/06/25 05:20:45;;;;;;;1.05;0.30;;;19.30;99.90;;;;;;5001709;28;20586;-79
2022/06/25 05:23:13;;;;;;;0.50;0.20;;;19.30;99.90;;;;;;5001952;28;20038;-80
2022/06/25 05:25:39;;;;;;;2.15;0.30;;;19.20;99.90;;;;;;4984750;28;20038;-81
2022/06/25 05:28:06;;;;;;;0.85;0.35;;;19.30;99.90;;;;;;4971408;28;20177;-81
2022/06/25 05:30:32;;;;;;;1.80;0.47;;;19.40;99.90;;;;;;4987399;28;20045;-79
2022/06/25 05:32:58;;;;;;;1.30;0.40;;;19.40;99.90;;;;;;4967147;28;21976;-81
2022/06/25 05:35:27;;;;;;;2.20;0.40;;;19.60;99.90;;;;;;5019058;28;20114;-80
2022/06/25 05:37:53;;;;;;;0.70;0.40;;;19.70;99.90;;;;;;5041528;28;20035;-80
2022/06/25 05:40:19;;;;;;;1.10;0.40;;;19.90;99.90;;;;;;5043073;28;20029;-82
2022/06/25 05:42:46;;;;;;;1.60;0.40;;;20.10;99.90;;;;;;5023919;28;20028;-81
2022/06/25 05:45:13;;;;;;;2.50;0.43;;;20.20;99.90;;;;;;5041336;28;20513;-82
2022/06/25 05:47:39;;;;;;;1.77;0.40;;;20.20;99.90;;;;;;5045619;28;20689;-83
2022/06/25 05:50:06;;;;;;;2.38;0.50;;;20.50;99.90;;;;;;5021532;28;20028;-84
2022/06/25 05:52:32;;;;;;;2.47;0.55;;;20.50;99.90;;;;;;5024904;28;20028;-81
2022/06/25 05:54:58;;;;;;;1.30;0.40;;;20.50;99.90;;;;;;5055577;28;21873;-80
2022/06/25 05:57:23;;;;;;;1.70;0.50;;;20.70;99.90;;;;;;5040085;28;20040;-80
2022/06/25 05:59:49;;;;;;;1.95;0.50;;;20.80;99.90;;;;;;5027605;28;20192;-80
2022/06/25 06:02:15;;;;;;;2.30;0.50;;;20.90;99.90;;;;;;5039107;28;20039;-81
2022/06/25 06:04:40;;;;;;;1.20;0.45;;;21.20;99.90;;;;;;5045220;28;20055;-82
2022/06/25 06:07:06;;;;;;;1.42;0.50;;;21.30;99.90;;;;;;5035784;28;20131;-80
2022/06/25 06:09:32;;;;;;;1.17;0.50;;;21.10;99.90;;;;;;5037036;28;20109;-82
2022/06/25 06:11:58;;;;;;;1.25;0.40;;;21.10;99.90;;;;;;5030479;28;20033;-81
2022/06/25 06:14:24;;;;;;;1.88;0.50;;;21.00;99.90;;;;;;4999057;28;20056;-82
2022/06/25 06:16:50;;;;;;;0.98;0.40;;;21.30;99.90;;;;;;5022437;28;20158;-82
2022/06/25 06:19:16;;;;;;;1.48;0.47;;;21.40;99.90;;;;;;5021174;28;20484;-82
2022/06/25 06:21:42;;;;;;;2.03;0.50;;;21.40;99.90;;;;;;5017154;28;20033;-82
2022/06/25 06:24:07;;;;;;;1.25;0.50;;;21.60;99.90;;;;;;4999085;28;20070;-81
2022/06/25 06:26:34;;;;;;;1.42;0.40;;;21.70;99.90;;;;;;5032649;28;20485;-82
2022/06/25 06:28:59;;;;;;;1.90;0.57;;;22.00;99.90;;;;;;5005492;28;20029;-81
2022/06/25 06:31:25;;;;;;;1.35;0.38;;;21.70;99.90;;;;;;5000954;28;20102;-82
2022/06/25 06:33:51;;;;;;;2.38;0.45;;;21.90;99.90;;;;;;4998666;28;20021;-81
2022/06/25 06:36:17;;;;;;;0.90;0.40;;;22.00;99.90;;;;;;5032708;28;20077;-82
2022/06/25 06:38:42;;;;;;;1.20;0.40;;;22.20;99.90;;;;;;5030449;28;20781;-81
2022/06/25 06:41:08;;;;;;;2.10;0.43;;;22.50;99.90;;;;;;5018445;28;20032;-83
2022/06/25 06:43:34;;;;;;;2.13;0.40;;;22.60;99.90;;;;;;5015769;28;20131;-83
2022/06/25 06:45:59;;;;;;;1.10;0.40;;;22.60;99.90;;;;;;5014101;28;20447;-82
2022/06/25 06:48:25;;;;;;;0.77;0.30;;;22.80;99.90;;;;;;5017452;28;20272;-81
2022/06/25 06:50:51;;;;;;;0.90;0.30;;;22.80;99.90;;;;;;5032891;28;20420;-82
2022/06/25 06:53:16;;;;;;;1.13;0.40;;;23.00;99.90;;;;;;5013998;28;20024;-82
2022/06/25 06:55:42;;;;;;;2.38;0.40;;;23.10;99.90;;;;;;5014905;28;20162;-82
2022/06/25 06:58:08;;;;;;;1.55;0.40;;;23.30;99.90;;;;;;5016014;28;20179;-82
2022/06/25 07:00:33;;;;;;;1.40;0.40;;;23.30;99.90;;;;;;5033056;28;20025;-82
2022/06/25 07:02:59;;;;;;;1.13;0.30;;;22.80;99.90;;;;;;5013095;28;20059;-84
2022/06/25 07:05:25;;;;;;;1.33;0.50;;;22.70;99.90;;;;;;5031704;28;20141;-82
2022/06/25 07:07:50;;;;;;;3.38;0.40;;;22.60;99.90;;;;;;5020580;28;20041;-81
2022/06/25 07:10:16;;;;;;;3.15;0.40;;;22.70;99.90;;;;;;5002350;28;20116;-83
2022/06/25 07:12:42;;;;;;;1.17;0.40;;;22.80;99.90;;;;;;5020503;28;20044;-81
2022/06/25 07:15:08;;;;;;;2.05;0.40;;;23.00;99.90;;;;;;5014778;28;20128;-81
2022/06/25 07:17:34;;;;;;;1.65;0.40;;;23.30;99.90;;;;;;5013051;28;20098;-81
2022/06/25 07:19:59;;;;;;;2.30;0.50;;;22.90;99.90;;;;;;5011551;28;20041;-81
2022/06/25 07:22:25;;;;;;;1.23;0.40;;;23.00;99.90;;;;;;5009902;28;20478;-82
2022/06/25 07:24:53;;;;;;;1.13;0.40;;;23.00;99.90;;;;;;5027193;28;20100;-81
2022/06/25 07:27:19;;;;;;;1.13;0.30;;;23.20;99.90;;;;;;5028014;28;20029;-81
2022/06/25 07:29:45;;;;;;;2.10;0.40;;;23.50;99.90;;;;;;5018057;28;20056;-86
2022/06/25 07:32:11;;;;;;;1.70;0.45;;;23.40;99.90;;;;;;5014777;28;20029;-82
2022/06/25 07:34:38;;;;;;;2.10;0.40;;;23.00;99.90;;;;;;5011811;28;20025;-82
2022/06/25 07:37:04;;;;;;;1.63;0.40;;;23.00;99.90;;;;;;5027495;28;20029;-81
2022/06/25 07:39:29;;;;;;;0.80;0.40;;;23.30;99.90;;;;;;5026799;28;20034;-83
2022/06/25 07:41:55;;;;;;;0.60;0.30;;;23.60;99.90;;;;;;4993208;28;20524;-82
2022/06/25 07:44:22;;;;;;;0.90;0.30;;;23.50;99.90;;;;;;5013227;28;20041;-80
2022/06/25 07:46:48;;;;;;;1.73;0.40;;;24.10;99.90;;;;;;4993600;28;20461;-80
2022/06/25 07:49:14;;;;;;;0.80;0.20;;;23.70;99.90;;;;;;5015372;28;20053;-82
2022/06/25 07:51:59;;;;;;;2.15;0.32;;;24.00;99.90;;;;;;5024378;28;20075;-81
2022/06/25 07:54:31;;;;;;;0.68;0.30;;;23.30;99.90;;;;;;5032029;28;20044;-82
2022/06/25 07:56:57;;;;;;;1.50;0.30;;;24.00;99.90;;;;;;5019120;28;20029;-82
2022/06/25 07:59:23;;;;;;;0.93;0.20;;;23.80;99.90;;;;;;5013876;28;20032;-84
2022/06/25 08:01:49;;;;;;;1.15;0.20;;;23.70;99.90;;;;;;5013446;28;20021;-82
2022/06/25 08:04:15;;;;;;;0.70;0.20;;;23.40;99.90;;;;;;5030308;28;20036;-81
2022/06/25 08:06:41;;;;;;;1.58;0.30;;;23.40;99.90;;;;;;5015407;28;20168;-83
2022/06/25 08:09:10;;;;;;;1.95;0.50;;;23.00;99.90;;;;;;5012092;28;20053;-80
2022/06/25 08:11:36;;;;;;;1.37;0.20;;;23.20;99.90;;;;;;5013498;28;20059;-81
2022/06/25 08:14:03;;;;;;;0.65;0.20;;;23.20;99.90;;;;;;5028259;28;20384;-81
2022/06/25 08:16:29;;;;;;;0.85;0.25;;;23.10;99.90;;;;;;5013743;28;20098;-81
2022/06/25 08:18:55;;;;;;;0.50;0.20;;;23.00;99.90;;;;;;4995610;28;20025;-82
2022/06/25 08:21:21;;;;;;;0.85;0.30;;;22.90;99.90;;;;;;5012667;28;20664;-83
2022/06/25 08:23:47;;;;;;;1.40;0.30;;;23.10;99.90;;;;;;5027924;28;20033;-81
2022/06/25 08:26:15;;;;;;;1.55;0.30;;;23.60;99.90;;;;;;5013117;28;20048;-84
2022/06/25 08:28:42;;;;;;;2.15;0.20;;;24.20;99.90;;;;;;5028855;28;20098;-83
2022/06/25 08:31:08;;;;;;;2.63;0.30;;;24.30;99.90;;;;;;5013396;28;20404;-81
2022/06/25 08:33:34;;;;;;;0.52;0.20;;;24.30;99.90;;;;;;5028888;28;20013;-84
2022/06/25 08:35:59;;;;;;;0.70;0.20;;;24.60;99.90;;;;;;4999072;28;20043;-83
2022/06/25 08:38:25;;;;;;;1.08;0.30;;;24.20;99.90;;;;;;5027596;28;20029;-82
2022/06/25 08:40:59;;;;;;;0.60;0.30;;;23.80;99.90;;;;;;5010389;28;20278;-82
2022/06/25 08:43:25;;;;;;;1.42;0.30;;;23.60;99.90;;;;;;5028332;28;20028;-82
2022/06/25 08:45:51;;;;;;;0.63;0.20;;;24.10;99.90;;;;;;5009199;28;20210;-83
2022/06/25 08:48:22;;;;;;;0.70;0.20;;;24.20;99.90;;;;;;5017334;28;20029;-83
2022/06/25 08:50:49;;;;;;;0.50;0.20;;;24.70;99.90;;;;;;5006432;28;20040;-82
2022/06/25 08:53:16;;;;;;;0.55;0.10;;;25.10;99.90;;;;;;5028177;28;20112;-84
2022/06/25 08:55:44;;;;;;;2.97;0.20;;;25.00;99.90;;;;;;5019900;28;20134;-84
2022/06/25 08:58:12;;;;;;;0.88;0.10;;;25.00;99.90;;;;;;5018362;28;20469;-82
2022/06/25 09:00:40;;;;;;;0.50;0.20;;;25.30;99.90;;;;;;4998949;28;20044;-82
2022/06/25 09:03:08;;;;;;;0.47;0.10;;;25.10;99.90;;;;;;4996892;28;20037;-83
2022/06/25 09:05:41;;;;;;;0.30;0.10;;;24.90;99.90;;;;;;5030059;28;20057;-83
2022/06/25 09:08:10;;;;;;;0.77;0.10;;;24.70;99.90;;;;;;5014681;28;20107;-84
2022/06/25 09:10:37;;;;;;;0.25;0.10;;;24.80;99.90;;;;;;5028740;28;20037;-82
2022/06/25 09:13:10;;;;;;;0.98;0.20;;;24.30;99.90;;;;;;5026639;28;20420;-84
2022/06/25 09:15:42;;;;;;;0.65;0.20;;;23.70;99.90;;;;;;5009992;28;20025;-85
2022/06/25 09:18:15;;;;;;;0.50;0.10;;;23.60;99.90;;;;;;5012933;28;20623;-83
2022/06/25 09:21:03;;;;;;;0.32;0.20;;;23.70;99.90;;;;;;5015336;28;20022;-82
2022/06/25 09:23:30;;;;;;;0.82;0.17;;;24.90;99.90;;;;;;4983760;28;22796;-82
2022/06/25 09:26:08;;;;;;;0.80;0.20;;;25.60;99.90;;;;;;5008575;28;20401;-83
2022/06/25 09:28:39;;;;;;;0.73;0.20;;;25.80;99.90;;;;;;5000223;28;20083;-82
2022/06/25 09:31:06;;;;;;;0.50;0.20;;;26.30;99.90;;;;;;5016403;28;20033;-84
2022/06/25 09:33:34;;;;;;;0.63;0.20;;;26.50;99.90;;;;;;5015301;28;20037;-85
2022/06/25 09:36:00;;;;;;;0.77;0.20;;;25.70;99.90;;;;;;4994583;28;20064;-84
2022/06/25 09:38:26;;;;;;;1.73;0.20;;;25.20;99.90;;;;;;5010120;28;20033;-82
2022/06/25 09:40:54;;;;;;;0.82;0.10;;;25.50;99.90;;;;;;5016602;28;20041;-82
2022/06/25 09:43:47;;;;;;;0.70;0.10;;;25.20;99.90;;;;;;5009786;28;20519;-87
2022/06/25 09:46:13;;;;;;;0.63;0.10;;;25.20;99.90;;;;;;5015346;28;20045;-83
2022/06/25 09:48:41;;;;;;;1.98;0.10;;;24.80;99.90;;;;;;5003514;28;20035;-84
2022/06/25 09:51:14;;;;;;;0.95;0.15;;;25.70;99.90;;;;;;5016437;28;20045;-84
2022/06/25 09:53:57;;;;;;;0.38;0.10;;;26.50;99.90;;;;;;5001949;28;20021;-84
2022/06/25 09:56:41;;;;;;;0.80;0.10;;;25.90;99.90;;;;;;5020030;28;20048;-88
2022/06/25 09:59:06;;;;;;;0.43;0.10;;;25.50;99.90;;;;;;5017296;28;20111;-84
2022/06/25 10:01:32;;;;;;;0.20;0.00;;;25.20;99.90;;;;;;5035779;28;20167;-87
2022/06/25 10:04:03;;;;;;;0.15;0.10;;;25.10;99.90;;;;;;5000948;28;20041;-87
2022/06/25 10:06:34;;;;;;;0.52;0.00;;;26.10;99.90;;;;;;5027378;28;20056;-88
2022/06/25 10:09:03;;;;;;;0.10;0.00;;;26.30;99.90;;;;;;5008470;28;20034;-83
2022/06/25 10:11:30;;;;;;;0.20;0.00;;;25.70;99.90;;;;;;5002323;28;20461;-84
2022/06/25 10:13:56;;;;;;;0.20;0.03;;;25.90;99.90;;;;;;5033264;28;20469;-84
2022/06/25 10:16:27;;;;;;;0.10;0.05;;;25.70;99.90;;;;;;5021885;28;20040;-85
2022/06/25 10:18:53;;;;;;;1.13;0.10;;;26.30;99.90;;;;;;5031299;28;20033;-83
2022/06/25 10:21:21;;;;;;;0.57;0.10;;;25.20;99.90;;;;;;5020117;28;20045;-83
2022/06/25 10:23:56;;;;;;;0.20;0.10;;;24.70;99.90;;;;;;5015928;28;20045;-82
2022/06/25 10:26:23;;;;;;;0.13;0.10;;;25.00;99.90;;;;;;5012741;28;20044;-89
2022/06/25 10:28:49;;;;;;;0.57;0.08;;;25.00;99.90;;;;;;5029885;28;20478;-82
2022/06/25 10:31:16;;;;;;;0.98;0.10;;;24.40;99.90;;;;;;5016673;28;20119;-82
2022/06/25 10:33:59;;;;;;;0.60;0.10;;;24.20;99.90;;;;;;5014039;28;20105;-82
2022/06/25 10:36:48;;;;;;;0.22;0.00;;;24.20;99.90;;;;;;5030847;28;20030;-83
2022/06/25 10:39:25;;;;;;;1.02;0.10;;;24.00;99.90;;;;;;5008835;28;20055;-83
2022/06/25 10:45:04;;;;;;;1.45;0.08;;;24.00;99.90;;;;;;5014060;28;20667;-82
2022/06/25 10:47:41;;;;;;;1.02;0.10;;;24.30;99.90;;;;;;5006488;28;20052;-85
2022/06/25 10:50:21;;;;;;;0.55;0.10;;;23.80;99.90;;;;;;5016026;28;20039;-84
2022/06/25 10:55:29;;;;;;;0.40;0.10;;;23.60;99.90;;;;;;5031575;28;20078;-81
2022/06/25 10:58:17;;;;;;;1.10;0.10;;;23.20;99.90;;;;;;5003809;28;20021;-84
2022/06/25 11:00:54;;;;;;;1.00;0.10;;;23.10;99.90;;;;;;4997921;28;20033;-84
2022/06/25 11:03:32;;;;;;;1.20;0.10;;;23.10;99.90;;;;;;5034493;28;20037;-83
2022/06/25 11:06:00;;;;;;;0.20;0.10;;;23.30;99.90;;;;;;5015162;28;20175;-82
2022/06/25 11:08:33;;;;;;;0.32;0.10;;;23.10;99.90;;;;;;5030581;28;20028;-83
2022/06/25 11:10:59;;;;;;;0.60;0.10;;;23.10;99.90;;;;;;5012694;28;20441;-83
2022/06/25 11:13:25;;;;;;;0.40;0.10;;;23.40;99.90;;;;;;5030240;28;20024;-82
2022/06/25 11:15:51;;;;;;;0.43;0.10;;;23.30;99.90;;;;;;5013966;28;20447;-84
2022/06/25 11:18:17;;;;;;;0.38;0.10;;;23.10;99.90;;;;;;5013778;28;20029;-85
2022/06/25 11:20:43;;;;;;;1.25;0.20;;;22.80;99.90;;;;;;5002626;28;20060;-85
2022/06/25 11:23:13;;;;;;;1.25;0.20;;;22.70;99.90;;;;;;5030736;28;20083;-82
2022/06/25 11:28:49;;;;;;;0.60;0.10;;;23.30;99.90;;;;;;5029953;28;20436;-82
2022/06/25 11:31:21;;;;;;;0.50;0.10;;;23.50;99.90;;;;;;5014790;28;20029;-84
2022/06/25 11:33:49;;;;;;;1.48;0.20;;;23.30;99.90;;;;;;5017951;28;20060;-83
2022/06/25 11:42:54;;;;;;;0.77;0.10;;;23.60;99.90;;;;;;5017189;28;20041;-82
2022/06/25 11:46:07;;;;;;;0.80;0.10;;;23.80;99.90;;;;;;5015170;28;20052;-83
2022/06/25 11:48:46;;;;;;;0.50;0.10;;;23.90;99.90;;;;;;5029993;28;20389;-82
2022/06/25 11:51:25;;;;;;;0.95;0.10;;;24.00;99.90;;;;;;5015039;28;20025;-83
2022/06/25 11:53:52;;;;;;;0.30;0.10;;;23.70;99.90;;;;;;5029089;28;20029;-83
2022/06/25 11:56:18;;;;;;;0.63;0.10;;;23.80;99.90;;;;;;5014278;28;20053;-84
2022/06/25 11:58:44;;;;;;;0.88;0.10;;;23.80;99.90;;;;;;5017199;28;20170;-83
2022/06/25 12:01:11;;;;;;;0.70;0.20;;;24.10;99.90;;;;;;5019660;28;20044;-84
2022/06/25 12:03:36;;;;;;;0.88;0.10;;;24.10;99.90;;;;;;4998227;28;20064;-83
2022/06/25 12:06:03;;;;;;;1.10;0.20;;;24.20;99.90;;;;;;5029540;28;20049;-83
2022/06/25 12:08:29;;;;;;;0.60;0.20;;;24.00;99.90;;;;;;5027744;28;20017;-83
2022/06/25 12:10:58;;;;;;;0.17;0.10;;;24.20;99.90;;;;;;5010489;28;20080;-84
2022/06/25 12:13:29;;;;;;;0.70;0.10;;;25.00;99.90;;;;;;5019149;28;20029;-84
2022/06/25 12:15:59;;;;;;;0.98;0.10;;;25.00;99.90;;;;;;5008951;28;20052;-84
2022/06/25 12:18:39;;;;;;;0.68;0.15;;;24.80;99.90;;;;;;4998664;28;20389;-84
2022/06/25 12:21:08;;;;;;;0.73;0.13;;;25.20;99.90;;;;;;4983500;28;20362;-82
2022/06/25 12:23:55;;;;;;;0.80;0.17;;;25.30;99.90;;;;;;5020179;28;20033;-83
2022/06/25 12:26:31;;;;;;;1.67;0.10;;;25.40;99.90;;;;;;4996133;28;20041;-85
2022/06/25 12:29:14;;;;;;;0.28;0.00;;;25.60;99.90;;;;;;4994361;28;20380;-84
2022/06/25 12:31:42;;;;;;;0.75;0.10;;;25.90;99.90;;;;;;5010643;28;20029;-85
2022/06/25 12:34:08;;;;;;;0.52;0.10;;;25.60;99.90;;;;;;5005881;28;20564;-85
2022/06/25 12:36:39;;;;;;;0.63;0.10;;;25.40;99.90;;;;;;5000300;28;20116;-82
2022/06/25 12:39:34;;;;;;;0.85;0.15;;;25.80;99.90;;;;;;5012987;28;20034;-84
2022/06/25 12:42:13;;;;;;;0.85;0.10;;;25.90;99.90;;;;;;5011353;28;20174;-84
2022/06/25 12:44:41;;;;;;;1.13;0.10;;;25.40;99.90;;;;;;4997087;28;20508;-84
2022/06/25 12:47:15;;;;;;;0.60;0.10;;;25.20;99.90;;;;;;5019255;28;20040;-84
2022/06/25 12:49:52;;;;;;;0.98;0.20;;;26.20;99.90;;;;;;4998385;28;20078;-83
2022/06/25 12:52:31;;;;;;;;;;;26.50;99.90;;;;;;5030648;28;20033;-83
2022/06/25 12:54:57;;;;;;;0.70;0.10;;;26.50;99.90;;;;;;5020489;28;19918;-84
2022/06/25 12:57:28;;;;;;;0.80;0.10;;;26.40;99.90;;;;;;4998428;28;20029;-84
2022/06/25 13:00:04;;;;;;;0.40;0.20;;;25.60;99.90;;;;;;4997835;28;20372;-85
2022/06/25 13:02:31;;;;;;;0.25;0.10;;;25.60;99.90;;;;;;5016255;28;20051;-84
2022/06/25 13:04:57;;;;;;;0.55;0.20;;;25.40;99.90;;;;;;5027420;28;22663;-84
2022/06/25 13:07:23;;;;;;;0.30;0.10;;;25.70;99.90;;;;;;5029585;28;20035;-84
2022/06/25 13:09:50;;;;;;;0.98;0.20;;;25.80;99.90;;;;;;5028618;28;20032;-82
2022/06/25 13:12:16;;;;;;;0.75;0.10;;;26.70;99.90;;;;;;4998143;28;20477;-83
2022/06/25 13:14:42;;;;;;;0.47;0.10;;;27.40;99.90;;;;;;5017558;28;20056;-84
2022/06/25 13:17:09;;;;;;;1.25;0.10;;;26.90;99.90;;;;;;5026415;28;20048;-85